createdAt,value
2023-05-14T00:00:17.062Z,99.99
2023-05-14T00:05:44.029Z,99.99
2023-05-14T00:10:36.452Z,99.99
2023-05-14T00:15:36.447Z,99.99
2023-05-14T00:20:36.328Z,99.99
2023-05-14T00:25:36.269Z,99.99
2023-05-14T00:30:36.176Z,99.99
2023-05-14T00:35:36.152Z,99.99
2023-05-14T00:40:36.057Z,99.99
2023-05-14T00:45:35.974Z,99.99
2023-05-14T00:50:35.912Z,99.99
2023-05-14T00:55:35.870Z,99.99
2023-05-14T01:00:35.808Z,99.99
2023-05-14T01:05:35.760Z,99.99
2023-05-14T01:10:35.661Z,99.99
2023-05-14T01:15:35.608Z,99.99
2023-05-14T01:20:35.522Z,99.99
2023-05-14T01:25:35.536Z,99.99
2023-05-14T01:30:35.413Z,99.99
2023-05-14T01:35:35.343Z,99.99
2023-05-14T01:40:35.253Z,99.99
2023-05-14T01:45:35.216Z,99.99
2023-05-14T01:50:35.139Z,99.99
2023-05-14T01:55:35.063Z,99.99
2023-05-14T02:00:34.991Z,99.99
2023-05-14T02:05:34.926Z,99.99
2023-05-14T02:10:34.838Z,99.99
2023-05-14T02:15:34.896Z,99.99
2023-05-14T02:20:34.731Z,99.99
2023-05-14T02:25:34.674Z,99.99
2023-05-14T02:30:34.619Z,99.99
2023-05-14T02:35:34.518Z,99.99
2023-05-14T02:40:34.470Z,99.99
2023-05-14T02:45:34.424Z,99.99
2023-05-14T02:50:34.353Z,99.99
2023-05-14T02:55:34.280Z,99.99
2023-05-14T03:00:34.241Z,99.99
2023-05-14T03:05:34.134Z,99.99
2023-05-14T03:10:34.058Z,99.99
2023-05-14T03:15:34.007Z,99.99
2023-05-14T03:20:33.902Z,99.99
2023-05-14T03:25:33.888Z,99.99
2023-05-14T03:30:33.836Z,99.99
2023-05-14T03:35:33.726Z,99.99
2023-05-14T03:40:33.702Z,99.99
2023-05-14T03:45:33.616Z,99.99
2023-05-14T03:50:33.547Z,99.99
2023-05-14T03:55:33.481Z,99.99
2023-05-14T04:00:33.427Z,99.99
2023-05-14T04:05:33.338Z,99.99
2023-05-14T04:10:33.290Z,99.99
2023-05-14T04:15:33.259Z,99.99
2023-05-14T04:20:33.179Z,99.99
2023-05-14T04:25:33.148Z,99.99
2023-05-14T04:30:33.035Z,99.99
2023-05-14T04:35:32.945Z,99.99
2023-05-14T04:40:32.903Z,99.99
2023-05-14T04:45:34.173Z,99.99
2023-05-14T04:50:32.739Z,99.99
2023-05-14T04:55:32.758Z,99.99
2023-05-14T05:00:32.602Z,99.99
2023-05-14T05:05:32.584Z,99.99
2023-05-14T05:10:32.495Z,99.99
2023-05-14T05:15:32.433Z,99.99
2023-05-14T05:20:32.372Z,99.99
2023-05-14T05:25:32.292Z,99.99
2023-05-14T05:30:32.265Z,99.99
2023-05-14T05:35:32.254Z,99.99
2023-05-14T05:40:32.138Z,99.99
2023-05-14T05:45:32.048Z,99.99
2023-05-14T05:50:31.961Z,99.99
2023-05-14T05:55:31.912Z,99.99
2023-05-14T06:00:47.733Z,99.99
2023-05-14T06:05:40.190Z,99.99
2023-05-14T06:10:40.119Z,99.99
2023-05-14T06:15:40.047Z,99.98
2023-05-14T06:20:39.994Z,99.21
2023-05-14T06:25:39.876Z,98.49
2023-05-14T06:30:39.878Z,99.63
2023-05-14T06:35:39.784Z,98.35
2023-05-14T06:40:39.700Z,97.63
2023-05-14T06:45:39.667Z,98.90
2023-05-14T06:50:39.574Z,99.31
2023-05-14T06:55:39.468Z,98.35
2023-05-14T07:00:39.433Z,98.86
2023-05-14T07:05:39.370Z,99.43
2023-05-14T07:10:39.314Z,97.95
2023-05-14T07:15:39.233Z,98.61
2023-05-14T07:20:39.163Z,96.47
2023-05-14T07:25:39.079Z,96.12
2023-05-14T07:30:39.042Z,96.08
2023-05-14T07:35:38.966Z,92.63
2023-05-14T07:40:39.063Z,92.68
2023-05-14T07:45:38.818Z,91.22
2023-05-14T07:50:38.762Z,90.83
2023-05-14T07:55:38.672Z,89.46
2023-05-14T08:00:38.737Z,89.76
2023-05-14T08:05:38.535Z,87.59
2023-05-14T08:10:38.564Z,85.58
2023-05-14T08:15:38.490Z,86.49
2023-05-14T08:20:38.638Z,87.61
2023-05-14T08:25:38.306Z,87.40
2023-05-14T08:30:38.298Z,86.35
2023-05-14T08:35:38.160Z,86.57
2023-05-14T08:40:38.143Z,83.05
2023-05-14T08:45:38.139Z,77.59
2023-05-14T08:50:38.005Z,77.58
2023-05-14T08:56:04.316Z,71.06
2023-05-14T09:00:56.481Z,69.99
2023-05-14T09:05:57.994Z,65.92
2023-05-14T09:10:56.368Z,62.97
2023-05-14T09:15:56.307Z,65.83
2023-05-14T09:20:56.236Z,63.10
2023-05-14T09:25:56.176Z,61.23
2023-05-14T09:30:56.074Z,64.28
2023-05-14T09:35:58.234Z,64.75
2023-05-14T09:40:55.982Z,63.21
2023-05-14T09:45:55.905Z,61.74
2023-05-14T09:50:55.884Z,57.42
2023-05-14T09:55:55.985Z,52.04
2023-05-14T10:00:55.739Z,52.96
2023-05-14T10:05:55.736Z,55.22
2023-05-14T10:10:55.640Z,51.70
2023-05-14T10:15:55.589Z,52.54
2023-05-14T10:20:55.670Z,54.19
2023-05-14T10:25:55.413Z,49.19
2023-05-14T10:30:55.341Z,49.37
2023-05-14T10:35:55.265Z,58.84
2023-05-14T10:40:55.177Z,59.17
2023-05-14T10:45:55.091Z,61.88
2023-05-14T10:50:55.260Z,64.18
2023-05-14T10:55:54.974Z,52.84
2023-05-14T11:00:54.911Z,50.63
2023-05-14T11:05:54.831Z,48.75
2023-05-14T11:10:54.728Z,46.67
2023-05-14T11:15:54.758Z,48.77
2023-05-14T11:20:54.688Z,49.32
2023-05-14T11:25:54.692Z,53.71
2023-05-14T11:30:54.496Z,58.59
2023-05-14T11:35:54.439Z,58.45
2023-05-14T11:40:54.366Z,60.02
2023-05-14T11:45:54.388Z,61.51
2023-05-14T11:50:54.233Z,61.40
2023-05-14T11:55:54.207Z,59.49
2023-05-14T12:00:54.095Z,59.45
2023-05-14T12:05:54.081Z,60.38
2023-05-14T12:10:53.985Z,61.48
2023-05-14T12:15:54.024Z,60.14
2023-05-14T12:20:53.880Z,59.70
2023-05-14T12:25:53.768Z,61.01
2023-05-14T12:30:53.756Z,63.01
2023-05-14T12:35:53.787Z,64.06
2023-05-14T12:40:53.591Z,59.18
2023-05-14T12:45:53.531Z,60.68
2023-05-14T12:50:53.433Z,61.08
2023-05-14T12:55:53.552Z,61.81
2023-05-14T13:00:53.359Z,63.04
2023-05-14T13:05:53.332Z,65.08
2023-05-14T13:10:53.172Z,62.24
2023-05-14T13:15:53.125Z,58.91
2023-05-14T13:20:53.066Z,59.03
2023-05-14T13:25:53.005Z,63.92
2023-05-14T13:30:53.067Z,63.31
2023-05-14T13:35:52.880Z,63.14
2023-05-14T13:40:52.839Z,63.67
2023-05-14T13:45:52.858Z,62.86
2023-05-14T13:50:52.713Z,62.69
2023-05-14T13:55:52.607Z,73.38
2023-05-14T14:00:52.543Z,82.15
2023-05-14T14:05:52.501Z,83.52
2023-05-14T14:10:52.374Z,91.58
2023-05-14T14:15:52.365Z,93.20
2023-05-14T14:20:52.254Z,93.36
2023-05-14T14:25:52.225Z,92.41
2023-05-14T14:30:52.199Z,89.92
2023-05-14T14:35:52.159Z,87.90
2023-05-14T14:40:52.026Z,89.87
2023-05-14T14:45:52.025Z,88.28
2023-05-14T14:50:51.896Z,81.95
2023-05-14T14:55:51.830Z,82.48
2023-05-14T15:00:51.752Z,81.01
2023-05-14T15:05:51.712Z,81.01
2023-05-14T15:10:51.580Z,81.55
2023-05-14T15:15:51.560Z,83.30
2023-05-14T15:20:51.694Z,84.35
2023-05-14T15:25:51.418Z,87.78
2023-05-14T15:30:51.402Z,90.00
2023-05-14T15:35:51.295Z,90.50
2023-05-14T15:40:51.214Z,88.68
2023-05-14T15:45:51.124Z,92.18
2023-05-14T15:50:51.079Z,84.31
2023-05-14T15:55:51.006Z,83.06
2023-05-14T16:00:51.012Z,83.18
2023-05-14T16:05:50.916Z,79.32
2023-05-14T16:10:53.097Z,79.96
2023-05-14T16:15:50.720Z,77.98
2023-05-14T16:20:50.648Z,83.52
2023-05-14T16:25:50.633Z,82.15
2023-05-14T16:30:50.516Z,85.24
2023-05-14T16:35:50.479Z,86.35
2023-05-14T16:40:50.414Z,88.76
2023-05-14T16:45:50.380Z,87.19
2023-05-14T16:50:50.287Z,85.08
2023-05-14T16:55:50.315Z,82.11
2023-05-14T17:00:50.180Z,79.76
2023-05-14T17:05:50.117Z,71.20
2023-05-14T17:10:49.970Z,68.14
2023-05-14T17:15:49.991Z,71.67
2023-05-14T17:20:49.888Z,73.15
2023-05-14T17:25:49.812Z,68.95
2023-05-14T17:30:49.747Z,70.69
2023-05-14T17:35:49.680Z,74.63
2023-05-14T17:40:49.586Z,73.66
2023-05-14T17:45:54.221Z,74.06
2023-05-14T17:50:50.551Z,74.66
2023-05-14T17:55:49.395Z,75.51
2023-05-14T18:00:49.706Z,76.32
2023-05-14T18:05:49.303Z,75.37
2023-05-14T18:10:49.220Z,73.69
2023-05-14T18:15:49.235Z,75.31
2023-05-14T18:20:49.195Z,74.10
2023-05-14T18:25:49.087Z,75.95
2023-05-14T18:30:48.978Z,72.31
2023-05-14T18:35:48.919Z,75.85
2023-05-14T18:40:49.396Z,75.07
2023-05-14T18:45:48.776Z,76.83
2023-05-14T18:50:48.701Z,77.07
2023-05-14T18:55:48.656Z,78.12
2023-05-14T19:00:48.595Z,78.22
2023-05-14T19:05:48.529Z,78.16
2023-05-14T19:10:49.520Z,78.77
2023-05-14T19:15:48.378Z,78.77
2023-05-14T19:20:48.330Z,78.77
2023-05-14T19:25:48.190Z,79.00
2023-05-14T19:30:48.165Z,79.61
2023-05-14T19:35:48.071Z,80.43
2023-05-14T19:40:48.040Z,80.26
2023-05-14T19:45:47.989Z,80.87
2023-05-14T19:50:47.898Z,81.38
2023-05-14T19:55:47.801Z,80.97
2023-05-14T20:00:47.780Z,81.38
2023-05-14T20:05:47.727Z,80.97
2023-05-14T20:10:47.654Z,81.27
2023-05-14T20:15:47.588Z,80.97
2023-05-14T20:20:47.513Z,80.46
2023-05-14T20:25:47.400Z,80.26
2023-05-14T20:30:47.434Z,82.29
2023-05-14T20:35:47.268Z,82.50
2023-05-14T20:40:47.208Z,84.16
2023-05-14T20:45:47.118Z,84.97
2023-05-14T20:50:47.150Z,87.20
2023-05-14T20:55:47.055Z,85.98
2023-05-14T21:00:46.938Z,86.39
2023-05-14T21:05:46.888Z,87.55
2023-05-14T21:10:46.804Z,89.62
2023-05-14T21:15:46.781Z,90.94
2023-05-14T21:20:46.730Z,90.03
2023-05-14T21:25:46.608Z,90.03
2023-05-14T21:30:46.536Z,90.88
2023-05-14T21:35:46.534Z,91.96
2023-05-14T21:40:46.408Z,91.69
2023-05-14T21:45:46.400Z,90.88
2023-05-14T21:50:46.361Z,90.17
2023-05-14T21:55:46.282Z,89.15
2023-05-14T22:00:46.237Z,91.29
2023-05-14T22:05:46.137Z,89.56
2023-05-14T22:10:46.101Z,91.64
2023-05-14T22:15:46.048Z,92.80
2023-05-14T22:20:45.950Z,93.25
2023-05-14T22:25:46.789Z,93.09
2023-05-14T22:30:45.791Z,93.50
2023-05-14T22:35:45.712Z,93.85
2023-05-14T22:40:45.628Z,93.74
2023-05-14T22:45:45.576Z,94.05
2023-05-14T22:50:45.469Z,93.79
2023-05-14T22:55:45.463Z,93.28
2023-05-14T23:00:45.363Z,93.18
2023-05-14T23:05:45.306Z,91.79
2023-05-14T23:10:45.234Z,92.00
2023-05-14T23:15:45.194Z,93.12
2023-05-14T23:20:45.096Z,91.79
2023-05-14T23:25:45.022Z,92.71
2023-05-14T23:30:44.951Z,93.71
2023-05-14T23:35:44.934Z,94.78
2023-05-14T23:40:44.854Z,94.48
2023-05-14T23:45:44.798Z,94.17
2023-05-14T23:50:44.688Z,94.07
2023-05-14T23:55:44.653Z,93.66
